Time,TemperatureF,DewpointF,PressureIn,WindDirection,WindDirectionDegrees,WindSpeedMPH,WindSpeedGustMPH,Humidity,HourlyPrecipIn,Conditions,Clouds,dailyrainin,SolarRadiationWatts/m^2,SoftwareType,DateUTC
2013-01-27 00:02:00,45.1,42.1,28.92,South,184,25.3,25.3,89,0.02,RA,,0.00,0.0,WeatherDisplay:10.37,2013-01-27 00:02:00,
2013-01-27 00:07:00,45.1,42.1,28.92,SSW,202,25.3,25.3,89,0.02,RA,,0.00,0.0,WeatherDisplay:10.37,2013-01-27 00:07:00,
2013-01-27 00:12:00,45.2,42.2,28.91,ESE,114,25.3,25.3,89,0.02,CLR,,0.00,0.0,WeatherDisplay:10.37,2013-01-27 00:12:00,
2013-01-27 00:17:00,45.2,42.2,28.90,South,181,19.0,19.0,89,0.02,CLR,,0.00,0.0,WeatherDisplay:10.37,2013-01-27 00:17:00,
2013-01-27 00:22:00,45.2,42.2,28.89,SSW,210,29.0,29.0,89,0.02,CLR,,0.00,0.0,WeatherDisplay:10.37,2013-01-27 00:22:00,
2013-01-27 00:27:00,45.2,42.2,28.89,SSE,168,19.6,19.6,89,0.01,CLR,,0.00,0.0,WeatherDisplay:10.37,2013-01-27 00:27:00,
2013-01-27 00:32:00,45.3,42.2,28.88,ESE,122,20.7,20.7,89,0.01,CLR,,0.00,0.0,WeatherDisplay:10.37,2013-01-27 00:32:00,
2013-01-27 00:37:00,45.4,42.3,28.88,SSW,195,18.4,18.4,89,0.01,CLR,,0.00,0.0,WeatherDisplay:10.37,2013-01-27 00:37:00,
2013-01-27 00:42:00,45.4,42.3,28.87,SSW,209,24.2,24.2,89,0.02,RA,,0.01,0.0,WeatherDisplay:10.37,2013-01-27 00:42:00,
2013-01-27 00:47:00,45.5,42.4,28.86,SE,140,23.0,23.0,89,0.02,RA,,0.01,0.0,WeatherDisplay:10.37,2013-01-27 00:47:00,
2013-01-27 00:52:00,45.5,42.4,28.86,South,171,19.6,19.6,89,0.02,,,0.01,0.0,WeatherDisplay:10.37,2013-01-27 00:52:00,
2013-01-27 00:57:00,45.5,42.4,28.85,SE,142,29.9,29.9,89,0.01,CLR,,0.01,0.0,WeatherDisplay:10.37,2013-01-27 00:57:00,
2013-01-27 01:02:00,45.6,42.5,28.84,SSW,204,19.6,19.6,89,0.01,CLR,,0.01,0.0,WeatherDisplay:10.37,2013-01-27 01:02:00,
2013-01-27 01:07:00,45.8,42.7,28.84,SW,217,22.0,22.0,89,0.01,CLR,,0.01,0.0,WeatherDisplay:10.37,2013-01-27 01:07:00,
2013-01-27 01:12:00,45.9,42.8,28.83,SSE,160,31.1,31.1,89,0.01,CLR,,0.01,0.0,WeatherDisplay:10.37,2013-01-27 01:12:00,
2013-01-27 01:17:00,46.0,42.9,28.82,South,184,19.6,19.6,89,0.01,CLR,,0.01,0.0,WeatherDisplay:10.37,2013-01-27 01:17:00,
2013-01-27 01:22:00,46.1,42.7,28.82,South,172,19.6,19.6,88,0.01,CLR,,0.01,0.0,WeatherDisplay:10.37,2013-01-27 01:22:00,
2013-01-27 01:27:00,46.2,42.8,28.82,SW,217,24.2,24.2,88,0.01,CLR,,0.01,0.0,WeatherDisplay:10.37,2013-01-27 01:27:00,
2013-01-27 01:32:00,46.2,42.8,28.81,SE,136,20.7,20.7,88,0.01,CLR,,0.01,0.0,WeatherDisplay:10.37,2013-01-27 01:32:00,
2013-01-27 01:37:00,46.3,42.9,28.80,South,169,19.0,19.0,88,0.01,CLR,,0.01,0.0,WeatherDisplay:10.37,2013-01-27 01:37:00,
2013-01-27 01:42:00,46.4,43.0,28.80,SW,218,26.5,26.5,88,0.00,CLR,,0.01,0.0,WeatherDisplay:10.37,2013-01-27 01:42:00,
2013-01-27 01:47:00,46.4,43.0,28.80,South,185,33.4,33.4,88,0.00,CLR,,0.02,0.0,WeatherDisplay:10.37,2013-01-27 01:47:00,
2013-01-27 01:52:00,46.5,43.1,28.80,SSW,195,19.6,19.6,88,0.01,RA,,0.02,0.0,WeatherDisplay:10.37,2013-01-27 01:52:00,
2013-01-27 01:57:00,46.5,43.1,28.79,SSE,161,26.5,26.5,88,0.02,RA,,0.03,0.0,WeatherDisplay:10.37,2013-01-27 01:57:00,
2013-01-27 02:02:00,46.5,43.4,28.79,SSE,168,21.9,21.9,89,0.02,RA,,0.03,0.0,WeatherDisplay:10.37,2013-01-27 02:02:00,
2013-01-27 02:07:00,46.4,43.3,28.78,SSW,206,19.6,19.6,89,0.03,RA,,0.04,0.0,WeatherDisplay:10.37,2013-01-27 02:07:00,
2013-01-27 02:12:00,46.4,43.3,28.78,SSW,193,19.6,19.6,89,0.04,RA,,0.05,0.0,WeatherDisplay:10.37,2013-01-27 02:12:00,
2013-01-27 02:17:00,46.3,43.2,28.78,SW,234,19.6,19.6,89,0.04,RA,,0.06,0.0,WeatherDisplay:10.37,2013-01-27 02:17:00,
2013-01-27 02:22:00,46.3,43.2,28.78,SW,217,19.6,19.6,89,0.06,RA,,0.06,0.0,WeatherDisplay:10.37,2013-01-27 02:22:00,
2013-01-27 02:28:00,46.3,43.2,28.77,SSW,196,26.5,26.5,89,0.06,RA,,0.07,0.0,WeatherDisplay:10.37,2013-01-27 02:28:00,
2013-01-27 02:33:00,46.3,43.2,28.77,SE,144,27.6,27.6,89,0.06,RA,,0.07,0.0,WeatherDisplay:10.37,2013-01-27 02:33:00,
2013-01-27 02:38:00,46.3,43.2,28.77,SSW,211,18.4,18.4,89,0.07,RA,,0.08,0.0,WeatherDisplay:10.37,2013-01-27 02:38:00,
2013-01-27 02:43:00,46.3,43.2,28.77,SSW,196,19.6,19.6,89,0.07,RA,,0.08,0.0,WeatherDisplay:10.37,2013-01-27 02:43:00,
2013-01-27 02:48:00,46.3,43.5,28.77,WSW,244,21.0,21.0,90,0.08,RA,,0.09,0.0,WeatherDisplay:10.37,2013-01-27 02:48:00,
2013-01-27 02:53:00,46.3,43.2,28.77,SW,215,19.0,19.0,89,0.07,RA,,0.09,0.0,WeatherDisplay:10.37,2013-01-27 02:53:00,
2013-01-27 02:58:00,46.3,43.2,28.77,SW,231,23.0,23.0,89,0.06,,,0.09,0.0,WeatherDisplay:10.37,2013-01-27 02:58:00,
2013-01-27 03:03:00,46.4,43.3,28.77,SSW,196,21.9,21.9,89,0.06,RA,,0.09,0.0,WeatherDisplay:10.37,2013-01-27 03:03:00,
2013-01-27 03:08:00,46.4,43.3,28.77,WSW,242,19.6,19.6,89,0.06,RA,,0.10,0.0,WeatherDisplay:10.37,2013-01-27 03:08:00,
2013-01-27 03:13:00,46.4,43.3,28.76,SSW,194,16.0,16.0,89,0.06,RA,,0.11,0.0,WeatherDisplay:10.37,2013-01-27 03:13:00,
2013-01-27 03:18:00,46.3,43.2,28.75,SSE,148,17.3,17.3,89,0.06,RA,,0.11,0.0,WeatherDisplay:10.37,2013-01-27 03:18:00,
2013-01-27 03:23:00,46.3,43.2,28.76,SSW,196,19.6,19.6,89,0.05,CLR,,0.11,0.0,WeatherDisplay:10.37,2013-01-27 03:23:00,
2013-01-27 03:28:00,46.2,43.1,28.75,SSW,194,19.6,19.6,89,0.05,CLR,,0.11,0.0,WeatherDisplay:10.37,2013-01-27 03:28:00,
2013-01-27 03:33:00,46.2,43.1,28.75,SW,220,19.6,19.6,89,0.04,CLR,,0.11,0.0,WeatherDisplay:10.37,2013-01-27 03:33:00,
2013-01-27 03:38:00,46.2,42.8,28.76,SSW,212,18.4,18.4,88,0.03,CLR,,0.11,0.0,WeatherDisplay:10.37,2013-01-27 03:38:00,
2013-01-27 03:43:00,46.2,42.8,28.75,SW,232,18.4,18.4,88,0.04,RA,,0.12,0.0,WeatherDisplay:10.37,2013-01-27 03:43:00,
2013-01-27 03:48:00,46.2,42.8,28.75,SSW,209,16.1,16.1,88,0.03,RA,,0.12,0.0,WeatherDisplay:10.37,2013-01-27 03:48:00,
2013-01-27 03:53:00,46.2,42.8,28.75,WSW,248,17.3,17.3,88,0.03,CLR,,0.12,0.0,WeatherDisplay:10.37,2013-01-27 03:53:00,
2013-01-27 03:58:00,46.4,43.0,28.75,SW,221,21.9,21.9,88,0.03,CLR,,0.12,0.0,WeatherDisplay:10.37,2013-01-27 03:58:00,
2013-01-27 04:03:00,46.4,43.0,28.75,WSW,246,23.0,23.0,88,0.02,CLR,,0.12,0.0,WeatherDisplay:10.37,2013-01-27 04:03:00,
2013-01-27 04:08:00,46.5,43.1,28.75,SW,223,20.7,20.7,88,0.02,CLR,,0.12,0.0,WeatherDisplay:10.37,2013-01-27 04:08:00,
2013-01-27 04:13:00,46.5,43.1,28.75,SW,234,25.3,25.3,88,0.01,CLR,,0.12,0.0,WeatherDisplay:10.37,2013-01-27 04:13:00,
2013-01-27 04:18:00,46.5,43.1,28.75,WSW,238,19.0,19.0,88,0.01,CLR,,0.12,0.0,WeatherDisplay:10.37,2013-01-27 04:18:00,
2013-01-27 04:23:00,46.5,43.1,28.75,WSW,250,25.3,25.3,88,0.01,CLR,,0.12,0.0,WeatherDisplay:10.37,2013-01-27 04:23:00,
2013-01-27 04:28:00,46.4,42.7,28.76,West,261,21.9,21.9,87,0.01,CLR,,0.12,0.0,WeatherDisplay:10.37,2013-01-27 04:28:00,
2013-01-27 04:33:00,46.1,42.1,28.76,West,279,23.0,23.0,86,0.01,CLR,,0.12,0.0,WeatherDisplay:10.37,2013-01-27 04:33:00,
2013-01-27 04:38:00,45.9,42.2,28.76,WSW,252,19.6,19.6,87,0.01,CLR,,0.12,0.0,WeatherDisplay:10.37,2013-01-27 04:38:00,
2013-01-27 04:43:00,45.6,42.0,28.76,SW,225,21.9,21.9,87,0.00,CLR,,0.12,0.0,WeatherDisplay:10.37,2013-01-27 04:43:00,
2013-01-27 04:48:00,45.3,41.7,28.77,WSW,242,17.3,17.3,87,0.00,CLR,,0.12,0.0,WeatherDisplay:10.37,2013-01-27 04:48:00,
2013-01-27 04:53:00,45.1,41.8,28.77,SW,232,20.7,20.7,88,0.00,CLR,,0.12,0.0,WeatherDisplay:10.37,2013-01-27 04:53:00,
2013-01-27 04:58:00,44.9,41.6,28.77,SW,234,20.7,20.7,88,0.00,CLR,,0.12,0.0,WeatherDisplay:10.37,2013-01-27 04:58:00,
2013-01-27 05:00:00,44.7,41.4,28.77,WSW,242,17.3,17.3,88,0.00,CLR,,0.12,0.0,WeatherDisplay:10.37,2013-01-27 05:00:00,
2013-01-27 05:01:00,44.7,41.4,28.78,WSW,239,17.3,17.3,88,0.00,CLR,,0.12,0.0,WeatherDisplay:10.37,2013-01-27 05:01:00,
2013-01-27 05:02:00,44.6,41.3,28.78,WSW,251,13.8,13.8,88,0.00,CLR,,0.12,0.0,WeatherDisplay:10.37,2013-01-27 05:02:00,
2013-01-27 05:07:00,44.4,41.1,28.78,WSW,253,19.6,19.6,88,0.00,CLR,,0.12,0.0,WeatherDisplay:10.37,2013-01-27 05:07:00,
2013-01-27 05:12:00,44.1,40.5,28.78,WNW,286,12.7,12.7,87,0.00,CLR,,0.12,0.0,WeatherDisplay:10.37,2013-01-27 05:12:00,
2013-01-27 05:17:00,43.9,40.3,28.78,West,260,21.9,21.9,87,0.00,CLR,,0.12,0.0,WeatherDisplay:10.37,2013-01-27 05:17:00,
2013-01-27 05:22:00,43.6,40.0,28.79,WSW,256,10.4,10.4,87,0.00,CLR,,0.12,0.0,WeatherDisplay:10.37,2013-01-27 05:22:00,
2013-01-27 05:27:00,43.3,39.7,28.79,WSW,238,11.5,11.5,87,0.00,CLR,,0.12,0.0,WeatherDisplay:10.37,2013-01-27 05:27:00,
2013-01-27 05:32:00,43.0,39.4,28.80,WSW,258,13.8,13.8,87,0.00,CLR,,0.12,0.0,WeatherDisplay:10.37,2013-01-27 05:32:00,
2013-01-27 05:37:00,42.7,39.1,28.80,WSW,244,19.6,19.6,87,0.00,CLR,,0.12,0.0,WeatherDisplay:10.37,2013-01-27 05:37:00,
2013-01-27 05:42:00,42.5,39.2,28.80,WSW,242,15.0,15.0,88,0.00,CLR,,0.12,0.0,WeatherDisplay:10.37,2013-01-27 05:42:00,
2013-01-27 05:47:00,42.3,39.0,28.80,WSW,253,11.5,11.5,88,0.00,CLR,,0.12,0.0,WeatherDisplay:10.37,2013-01-27 05:47:00,
2013-01-27 05:52:00,42.1,38.8,28.80,NW,309,16.1,16.1,88,0.00,CLR,,0.12,0.0,WeatherDisplay:10.37,2013-01-27 05:52:00,
2013-01-27 05:57:00,42.0,39.0,28.80,SW,228,13.8,13.8,89,0.00,CLR,,0.12,0.0,WeatherDisplay:10.37,2013-01-27 05:57:00,
2013-01-27 06:02:00,41.9,38.9,28.80,WSW,250,18.4,18.4,89,0.00,CLR,,0.12,0.0,WeatherDisplay:10.37,2013-01-27 06:02:00,
2013-01-27 06:07:00,41.9,39.2,28.80,WSW,246,9.2,9.2,90,0.00,CLR,,0.12,0.0,WeatherDisplay:10.37,2013-01-27 06:07:00,
2013-01-27 06:12:00,41.9,39.2,28.80,SW,215,20.7,20.7,90,0.00,CLR,,0.12,0.0,WeatherDisplay:10.37,2013-01-27 06:12:00,
2013-01-27 06:17:00,41.8,39.1,28.80,West,264,15.0,15.0,90,0.00,CLR,,0.12,0.0,WeatherDisplay:10.37,2013-01-27 06:17:00,
2013-01-27 06:22:00,41.8,38.8,28.79,WSW,252,17.3,17.3,89,0.00,CLR,,0.12,0.0,WeatherDisplay:10.37,2013-01-27 06:22:00,
2013-01-27 06:27:00,41.7,38.7,28.79,WSW,252,19.6,19.6,89,0.00,CLR,,0.12,0.0,WeatherDisplay:10.37,2013-01-27 06:27:00,
2013-01-27 06:32:00,41.7,38.7,28.79,SW,227,16.1,16.1,89,0.00,CLR,,0.12,0.0,WeatherDisplay:10.37,2013-01-27 06:32:00,
2013-01-27 06:37:00,41.8,38.8,28.79,WSW,252,18.4,18.4,89,0.00,CLR,,0.12,0.0,WeatherDisplay:10.37,2013-01-27 06:37:00,
2013-01-27 06:42:00,41.9,38.9,28.79,SW,235,18.0,18.0,89,0.01,RA,,0.13,0.0,WeatherDisplay:10.37,2013-01-27 06:42:00,
2013-01-27 06:47:00,41.9,38.9,28.78,SW,236,17.3,17.3,89,0.01,RA,,0.13,0.0,WeatherDisplay:10.37,2013-01-27 06:47:00,
2013-01-27 06:52:00,41.9,38.9,28.78,NNW,338,15.0,15.0,89,0.01,,,0.13,0.0,WeatherDisplay:10.37,2013-01-27 06:52:00,
2013-01-27 06:57:00,41.8,38.8,28.78,West,269,19.6,19.6,89,0.01,CLR,,0.13,0.0,WeatherDisplay:10.37,2013-01-27 06:57:00,
2013-01-27 07:02:00,41.8,38.5,28.78,WSW,245,19.6,19.6,88,0.01,CLR,,0.13,0.0,WeatherDisplay:10.37,2013-01-27 07:02:00,
2013-01-27 07:08:00,41.8,38.5,28.78,West,275,11.5,11.5,88,0.01,CLR,,0.13,0.0,WeatherDisplay:10.37,2013-01-27 07:08:00,
2013-01-27 07:13:00,41.7,38.1,28.78,WSW,257,19.6,19.6,87,0.01,CLR,,0.13,0.0,WeatherDisplay:10.37,2013-01-27 07:13:00,
2013-01-27 07:18:00,41.7,38.1,28.78,SW,223,20.7,20.7,87,0.01,CLR,,0.13,0.0,WeatherDisplay:10.37,2013-01-27 07:18:00,
2013-01-27 07:23:00,41.7,37.8,28.78,SW,225,12.7,12.7,86,0.01,CLR,,0.13,0.0,WeatherDisplay:10.37,2013-01-27 07:23:00,
2013-01-27 07:28:00,41.7,37.5,28.78,WSW,250,16.0,16.0,85,0.01,CLR,,0.13,0.0,WeatherDisplay:10.37,2013-01-27 07:28:00,
2013-01-27 07:33:00,41.6,37.4,28.78,WNW,288,16.1,16.1,85,0.01,CLR,,0.13,0.0,WeatherDisplay:10.37,2013-01-27 07:33:00,
2013-01-27 07:38:00,41.6,37.4,28.78,West,276,16.0,16.0,85,0.01,CLR,,0.13,0.0,WeatherDisplay:10.37,2013-01-27 07:38:00,
2013-01-27 07:43:00,41.6,37.1,28.78,WSW,237,16.1,16.1,84,0.00,CLR,,0.13,0.0,WeatherDisplay:10.37,2013-01-27 07:43:00,
2013-01-27 07:48:00,41.6,38.6,28.79,WSW,237,12.7,12.7,89,0.00,CLR,,0.13,0.0,WeatherDisplay:10.37,2013-01-27 07:48:00,
2013-01-27 07:53:00,41.6,37.7,28.79,SW,233,17.3,17.3,86,0.00,CLR,,0.13,0.0,WeatherDisplay:10.37,2013-01-27 07:53:00,
2013-01-27 07:58:00,41.6,37.7,28.79,WSW,244,15.0,15.0,86,0.00,CLR,,0.13,0.0,WeatherDisplay:10.37,2013-01-27 07:58:00,
2013-01-27 08:03:00,41.7,37.8,28.79,SW,218,12.7,12.7,86,0.00,OVC,,0.13,0.0,WeatherDisplay:10.37,2013-01-27 08:03:00,
2013-01-27 08:08:00,41.6,37.7,28.80,WSW,238,20.0,20.0,86,0.00,OVC,,0.13,0.0,WeatherDisplay:10.37,2013-01-27 08:08:00,
2013-01-27 08:13:00,41.4,37.5,28.80,SSW,211,18.4,18.4,86,0.00,OVC,,0.13,0.0,WeatherDisplay:10.37,2013-01-27 08:13:00,
2013-01-27 08:18:00,41.2,37.3,28.81,WSW,239,15.0,15.0,86,0.01,RA,,0.13,0.0,WeatherDisplay:10.37,2013-01-27 08:18:00,
2013-01-27 08:23:00,41.0,37.4,28.81,SW,227,15.0,15.0,87,0.02,RA,,0.14,0.0,WeatherDisplay:10.37,2013-01-27 08:23:00,
2013-01-27 08:28:00,40.7,36.8,28.82,WSW,241,25.3,25.3,86,0.02,RA,,0.15,0.0,WeatherDisplay:10.37,2013-01-27 08:28:00,
2013-01-27 08:33:00,40.3,36.7,28.82,WSW,255,16.1,16.1,87,0.02,RA,,0.15,5.0,WeatherDisplay:10.37,2013-01-27 08:33:00,
2013-01-27 08:38:00,40.0,36.4,28.83,SW,225,32.2,32.2,87,0.03,RA,,0.16,5.0,WeatherDisplay:10.37,2013-01-27 08:38:00,
2013-01-27 08:43:00,39.7,36.1,28.83,WSW,244,16.1,16.1,87,0.03,RA,,0.16,11.0,WeatherDisplay:10.37,2013-01-27 08:43:00,
2013-01-27 08:48:00,39.4,35.9,28.84,WSW,248,10.4,10.4,87,0.03,BKN,,0.16,11.0,WeatherDisplay:10.37,2013-01-27 08:48:00,
2013-01-27 08:53:00,39.2,35.9,28.84,West,265,13.0,13.0,88,0.03,BKN,,0.16,7.0,WeatherDisplay:10.37,2013-01-27 08:53:00,
2013-01-27 08:58:00,38.9,35.6,28.84,WSW,238,12.7,12.7,88,0.03,BKN,,0.16,5.0,WeatherDisplay:10.37,2013-01-27 08:58:00,
2013-01-27 09:03:00,38.8,35.6,28.84,WSW,244,17.0,17.0,88,0.03,BKN,,0.17,9.0,WeatherDisplay:10.37,2013-01-27 09:03:00,
2013-01-27 09:08:00,38.6,35.6,28.84,WSW,242,11.5,11.5,89,0.04,RA,,0.17,11.0,WeatherDisplay:10.37,2013-01-27 09:08:00,
2013-01-27 09:13:00,38.5,35.5,28.84,SSW,209,16.1,16.1,89,0.05,RA,,0.17,12.0,WeatherDisplay:10.37,2013-01-27 09:13:00,
2013-01-27 09:18:00,38.4,35.4,28.85,WSW,241,17.0,17.0,89,0.04,RA,,0.17,9.0,WeatherDisplay:10.37,2013-01-27 09:18:00,
2013-01-27 09:23:00,38.4,35.4,28.85,WSW,238,16.1,16.1,89,0.04,RA,,0.19,5.0,WeatherDisplay:10.37,2013-01-27 09:23:00,
2013-01-27 09:28:00,38.3,35.3,28.85,WSW,245,12.7,12.7,89,0.05,RA,,0.20,12.0,WeatherDisplay:10.37,2013-01-27 09:28:00,
2013-01-27 09:33:00,38.1,35.1,28.85,West,259,2.3,2.3,89,0.06,RA,,0.20,26.0,WeatherDisplay:10.37,2013-01-27 09:33:00,
2013-01-27 09:38:00,38.1,35.4,28.86,NW,305,3.5,3.5,90,0.05,RA,,0.20,14.0,WeatherDisplay:10.37,2013-01-27 09:38:00,
2013-01-27 09:43:00,38.1,35.4,28.86,WSW,258,3.5,3.5,90,0.05,BKN,,0.20,28.0,WeatherDisplay:10.37,2013-01-27 09:43:00,
2013-01-27 09:48:00,38.1,35.4,28.86,SW,222,3.5,3.5,90,0.05,BKN,,0.20,69.0,WeatherDisplay:10.37,2013-01-27 09:48:00,
2013-01-27 09:53:00,38.2,35.8,28.86,West,268,3.5,3.5,91,0.05,SCT,,0.20,132.0,WeatherDisplay:10.37,2013-01-27 09:53:00,
2013-01-27 09:58:00,38.4,36.3,28.87,West,267,19.6,19.6,92,0.05,FEW,,0.20,11.0,WeatherDisplay:10.37,2013-01-27 09:58:00,
2013-01-27 10:03:00,38.6,36.2,28.88,West,265,17.3,17.3,91,0.07,RA,,0.23,7.0,WeatherDisplay:10.37,2013-01-27 10:03:00,
2013-01-27 10:08:00,38.5,35.8,28.89,WSW,244,6.9,6.9,90,0.08,RA,,0.24,11.0,WeatherDisplay:10.37,2013-01-27 10:08:00,
2013-01-27 10:13:00,38.1,35.1,28.90,NW,315,10.4,10.4,89,0.08,RA,,0.26,35.0,WeatherDisplay:10.37,2013-01-27 10:13:00,
2013-01-27 10:18:00,37.5,34.6,28.89,WSW,240,11.5,11.5,89,0.09,RA,,0.27,51.0,WeatherDisplay:10.37,2013-01-27 10:18:00,
2013-01-27 10:23:00,37.0,34.1,28.90,SW,236,16.1,16.1,89,0.09,RA,,0.27,56.0,WeatherDisplay:10.37,2013-01-27 10:23:00,
2013-01-27 10:28:00,36.8,34.1,28.91,West,265,3.5,3.5,90,0.07,BKN,,0.27,76.0,WeatherDisplay:10.37,2013-01-27 10:28:00,
2013-01-27 10:33:00,36.7,34.0,28.91,WSW,242,3.5,3.5,90,0.06,SCT,,0.27,104.0,WeatherDisplay:10.37,2013-01-27 10:33:00,
2013-01-27 10:38:00,36.7,34.3,28.91,WSW,257,8.0,8.0,91,0.06,SCT,,0.27,77.0,WeatherDisplay:10.37,2013-01-27 10:38:00,
2013-01-27 10:43:00,36.8,34.4,28.91,WSW,242,4.6,4.6,91,0.06,SCT,,0.27,91.0,WeatherDisplay:10.37,2013-01-27 10:43:00,
2013-01-27 10:48:00,36.9,34.8,28.91,SW,232,11.5,11.5,92,0.06,SCT,,0.27,81.0,WeatherDisplay:10.37,2013-01-27 10:48:00,
2013-01-27 10:53:00,37.0,34.9,28.91,WSW,252,5.8,5.8,92,0.06,SCT,,0.27,33.0,WeatherDisplay:10.37,2013-01-27 10:53:00,
2013-01-27 10:58:00,37.0,34.6,28.91,SW,232,12.0,12.0,91,0.06,BKN,,0.27,84.0,WeatherDisplay:10.37,2013-01-27 10:58:00,
2013-01-27 11:04:00,37.0,34.6,28.91,SW,232,6.9,6.9,91,0.04,SCT,,0.27,155.0,WeatherDisplay:10.37,2013-01-27 11:04:00,
2013-01-27 11:09:00,37.2,35.1,28.91,SW,234,7.0,7.0,92,0.02,CLR,,0.27,229.0,WeatherDisplay:10.37,2013-01-27 11:09:00,
2013-01-27 11:14:00,37.5,35.4,28.91,SW,233,2.3,2.3,92,0.02,CLR,,0.27,139.0,WeatherDisplay:10.37,2013-01-27 11:14:00,
2013-01-27 11:19:00,37.6,35.5,28.91,WSW,251,9.2,9.2,92,0.00,CLR,,0.27,199.0,WeatherDisplay:10.37,2013-01-27 11:19:00,
2013-01-27 11:24:00,37.8,35.7,28.90,SW,227,6.9,6.9,92,0.00,CLR,,0.27,142.0,WeatherDisplay:10.37,2013-01-27 11:24:00,
2013-01-27 11:29:00,38.1,36.0,28.90,SW,219,10.4,10.4,92,0.00,CLR,,0.27,183.0,WeatherDisplay:10.37,2013-01-27 11:29:00,
2013-01-27 11:34:00,38.5,36.1,28.90,WSW,237,19.6,19.6,91,0.00,CLR,,0.27,181.0,WeatherDisplay:10.37,2013-01-27 11:34:00,
2013-01-27 11:39:00,39.0,36.0,28.90,SW,234,19.6,19.6,89,0.00,CLR,,0.27,195.0,WeatherDisplay:10.37,2013-01-27 11:39:00,
2013-01-27 11:44:00,39.5,36.0,28.90,SW,234,21.9,21.9,87,0.00,CLR,,0.27,134.0,WeatherDisplay:10.37,2013-01-27 11:44:00,
2013-01-27 11:49:00,39.8,35.7,28.91,SW,229,21.9,21.9,85,0.00,FEW,,0.27,81.0,WeatherDisplay:10.37,2013-01-27 11:49:00,
2013-01-27 11:54:00,40.0,35.6,28.92,WSW,249,25.0,25.0,84,0.00,SCT,,0.27,72.0,WeatherDisplay:10.37,2013-01-27 11:54:00,
2013-01-27 11:59:00,40.1,35.4,28.92,WSW,258,27.6,27.6,83,0.00,SCT,,0.27,97.0,WeatherDisplay:10.37,2013-01-27 11:59:00,
2013-01-27 12:04:00,40.3,35.5,28.92,West,261,33.4,33.4,83,0.00,SCT,,0.27,107.0,WeatherDisplay:10.37,2013-01-27 12:04:00,
2013-01-27 12:09:00,40.4,35.6,28.92,WSW,244,22.0,22.0,83,0.00,SCT,,0.27,100.0,WeatherDisplay:10.37,2013-01-27 12:09:00,
2013-01-27 12:14:00,40.5,35.4,28.92,WSW,238,19.6,19.6,82,0.00,FEW,,0.27,192.0,WeatherDisplay:10.37,2013-01-27 12:14:00,
2013-01-27 12:19:00,40.7,35.6,28.92,WSW,241,26.5,26.5,82,0.00,CLR,,0.27,179.0,WeatherDisplay:10.37,2013-01-27 12:19:00,
2013-01-27 12:24:00,40.8,35.1,28.92,WSW,238,27.6,27.6,80,0.00,CLR,,0.27,192.0,WeatherDisplay:10.37,2013-01-27 12:24:00,
2013-01-27 12:29:00,40.9,35.5,28.93,West,268,25.3,25.3,81,0.00,CLR,,0.27,207.0,WeatherDisplay:10.37,2013-01-27 12:29:00,
2013-01-27 12:34:00,40.9,35.2,28.92,SW,221,26.5,26.5,80,0.00,CLR,,0.27,142.0,WeatherDisplay:10.37,2013-01-27 12:34:00,
2013-01-27 12:39:00,40.9,35.2,28.92,SW,233,20.7,20.7,80,0.00,FEW,,0.27,200.0,WeatherDisplay:10.37,2013-01-27 12:39:00,
2013-01-27 12:44:00,40.8,34.8,28.92,WSW,254,22.0,22.0,79,0.00,SCT,,0.27,67.0,WeatherDisplay:10.37,2013-01-27 12:44:00,
2013-01-27 12:49:00,40.7,35.0,28.93,South,186,23.0,23.0,80,0.00,SCT,,0.27,60.0,WeatherDisplay:10.37,2013-01-27 12:49:00,
2013-01-27 12:54:00,40.6,34.9,28.93,West,267,11.5,11.5,80,0.00,BKN,,0.27,91.0,WeatherDisplay:10.37,2013-01-27 12:54:00,
2013-01-27 12:59:00,40.5,35.1,28.93,SSW,199,16.0,16.0,81,0.00,BKN,,0.27,88.0,WeatherDisplay:10.37,2013-01-27 12:59:00,
2013-01-27 13:04:00,40.5,35.1,28.92,WSW,240,18.0,18.0,81,0.00,BKN,,0.27,91.0,WeatherDisplay:10.37,2013-01-27 13:04:00,
2013-01-27 13:09:00,40.6,35.2,28.92,SW,219,18.4,18.4,81,0.00,BKN,,0.27,91.0,WeatherDisplay:10.37,2013-01-27 13:09:00,
2013-01-27 13:14:00,40.7,35.0,28.92,SW,225,19.6,19.6,80,0.00,BKN,,0.27,90.0,WeatherDisplay:10.37,2013-01-27 13:14:00,
2013-01-27 13:19:00,40.7,35.3,28.92,SW,215,16.1,16.1,81,0.00,SCT,,0.27,109.0,WeatherDisplay:10.37,2013-01-27 13:19:00,
2013-01-27 13:24:00,40.8,35.1,28.92,WSW,238,16.1,16.1,80,0.00,SCT,,0.27,91.0,WeatherDisplay:10.37,2013-01-27 13:24:00,
2013-01-27 13:29:00,40.8,35.1,28.92,SW,236,19.6,19.6,80,0.00,SCT,,0.27,67.0,WeatherDisplay:10.37,2013-01-27 13:29:00,
2013-01-27 13:34:00,40.8,35.1,28.92,SW,234,26.5,26.5,80,0.00,BKN,,0.27,76.0,WeatherDisplay:10.37,2013-01-27 13:34:00,
2013-01-27 13:39:00,40.8,35.4,28.92,WSW,242,26.5,26.5,81,0.00,BKN,,0.27,67.0,WeatherDisplay:10.37,2013-01-27 13:39:00,
2013-01-27 13:44:00,40.6,35.5,28.93,WSW,244,27.6,27.6,82,0.01,RA,,0.28,40.0,WeatherDisplay:10.37,2013-01-27 13:44:00,
2013-01-27 13:49:00,40.2,35.4,28.93,West,259,26.5,26.5,83,0.02,RA,,0.28,37.0,WeatherDisplay:10.37,2013-01-27 13:49:00,
2013-01-27 13:54:00,39.8,35.7,28.93,WSW,248,19.6,19.6,85,0.02,RA,,0.28,26.0,WeatherDisplay:10.37,2013-01-27 13:54:00,
2013-01-27 13:59:00,39.5,35.7,28.93,SSW,213,19.0,19.0,86,0.02,RA,,0.29,26.0,WeatherDisplay:10.37,2013-01-27 13:59:00,
2013-01-27 14:04:00,39.2,35.4,28.94,SW,217,24.0,24.0,86,0.03,RA,,0.30,14.0,WeatherDisplay:10.37,2013-01-27 14:04:00,
2013-01-27 14:09:00,39.0,35.5,28.94,SW,227,18.4,18.4,87,0.04,RA,,0.31,11.0,WeatherDisplay:10.37,2013-01-27 14:09:00,
2013-01-27 14:14:00,38.6,35.1,28.94,SSW,201,19.6,19.6,87,0.05,RA,,0.31,18.0,WeatherDisplay:10.37,2013-01-27 14:14:00,
2013-01-27 14:19:00,38.4,35.2,28.93,WSW,242,16.1,16.1,88,0.06,RA,,0.32,30.0,WeatherDisplay:10.37,2013-01-27 14:19:00,
2013-01-27 14:24:00,38.3,35.3,28.94,SW,236,16.0,16.0,89,0.06,RA,,0.33,21.0,WeatherDisplay:10.37,2013-01-27 14:24:00,
2013-01-27 14:29:00,38.4,35.4,28.95,SW,222,17.3,17.3,89,0.06,RA,,0.33,18.0,WeatherDisplay:10.37,2013-01-27 14:29:00,
2013-01-27 14:34:00,38.7,35.7,28.96,WNW,302,21.9,21.9,89,0.06,BKN,,0.34,23.0,WeatherDisplay:10.37,2013-01-27 14:34:00,
2013-01-27 14:39:00,38.8,35.8,28.96,WSW,240,26.5,26.5,89,0.07,RA,,0.34,28.0,WeatherDisplay:10.37,2013-01-27 14:39:00,
2013-01-27 14:44:00,38.9,35.9,28.96,West,264,20.7,20.7,89,0.06,RA,,0.34,40.0,WeatherDisplay:10.37,2013-01-27 14:44:00,
2013-01-27 14:49:00,38.9,35.9,28.97,West,261,12.7,12.7,89,0.06,RA,,0.35,47.0,WeatherDisplay:10.37,2013-01-27 14:49:00,
2013-01-27 14:54:00,38.9,35.9,28.96,SW,233,19.6,19.6,89,0.06,RA,,0.35,67.0,WeatherDisplay:10.37,2013-01-27 14:54:00,
2013-01-27 14:59:00,38.9,35.9,28.96,SW,232,16.1,16.1,89,0.06,SCT,,0.35,93.0,WeatherDisplay:10.37,2013-01-27 14:59:00,
2013-01-27 15:04:00,39.0,36.0,28.96,WNW,293,18.4,18.4,89,0.05,SCT,,0.35,72.0,WeatherDisplay:10.37,2013-01-27 15:04:00,
2013-01-27 15:09:00,39.0,36.0,28.96,SW,223,15.0,15.0,89,0.04,SCT,,0.35,33.0,WeatherDisplay:10.37,2013-01-27 15:09:00,
2013-01-27 15:14:00,39.1,36.1,28.96,West,270,20.7,20.7,89,0.03,BKN,,0.35,30.0,WeatherDisplay:10.37,2013-01-27 15:14:00,
2013-01-27 15:19:00,39.1,35.8,28.96,WSW,245,27.0,27.0,88,0.02,BKN,,0.35,23.0,WeatherDisplay:10.37,2013-01-27 15:19:00,
2013-01-27 15:24:00,39.2,35.7,28.97,SW,225,19.6,19.6,87,0.02,BKN,,0.35,21.0,WeatherDisplay:10.37,2013-01-27 15:24:00,
2013-01-27 15:29:00,39.3,36.0,28.97,WSW,250,17.3,17.3,88,0.02,BKN,,0.35,21.0,WeatherDisplay:10.37,2013-01-27 15:29:00,
2013-01-27 15:34:00,39.3,35.8,28.97,WSW,242,18.4,18.4,87,0.02,BKN,,0.35,16.0,WeatherDisplay:10.37,2013-01-27 15:34:00,
2013-01-27 15:39:00,39.3,35.8,28.97,West,265,24.2,24.2,87,0.01,BKN,,0.35,18.0,WeatherDisplay:10.37,2013-01-27 15:39:00,
2013-01-27 15:44:00,39.3,35.8,28.98,WSW,239,17.3,17.3,87,0.01,SCT,,0.35,37.0,WeatherDisplay:10.37,2013-01-27 15:44:00,
2013-01-27 15:49:00,39.3,35.8,28.98,West,280,23.0,23.0,87,0.00,FEW,,0.35,42.0,WeatherDisplay:10.37,2013-01-27 15:49:00,
2013-01-27 15:54:00,39.4,35.6,28.98,WSW,246,21.9,21.9,86,0.00,SCT,,0.35,28.0,WeatherDisplay:10.37,2013-01-27 15:54:00,
2013-01-27 15:59:00,39.4,35.6,28.99,WSW,241,12.7,12.7,86,0.00,BKN,,0.35,19.0,WeatherDisplay:10.37,2013-01-27 15:59:00,
2013-01-27 16:04:00,39.3,35.5,28.99,SW,236,19.6,19.6,86,0.00,BKN,,0.35,16.0,WeatherDisplay:10.37,2013-01-27 16:04:00,
2013-01-27 16:09:00,39.2,35.4,29.00,WSW,251,13.8,13.8,86,0.00,BKN,,0.35,11.0,WeatherDisplay:10.37,2013-01-27 16:09:00,
2013-01-27 16:14:00,39.2,35.4,29.00,WSW,238,20.7,20.7,86,0.00,BKN,,0.35,7.0,WeatherDisplay:10.37,2013-01-27 16:14:00,
2013-01-27 16:19:00,39.2,35.4,29.00,SW,235,18.0,18.0,86,0.00,BKN,,0.35,5.0,WeatherDisplay:10.37,2013-01-27 16:19:00,
2013-01-27 16:25:00,39.2,35.4,29.00,WSW,242,15.0,15.0,86,0.00,BKN,,0.35,5.0,WeatherDisplay:10.37,2013-01-27 16:25:00,
2013-01-27 16:30:00,39.3,35.2,29.00,WSW,240,17.3,17.3,85,0.01,RA,,0.35,0.0,WeatherDisplay:10.37,2013-01-27 16:30:00,
2013-01-27 16:35:00,39.3,35.2,29.00,SW,232,23.0,23.0,85,0.01,RA,,0.35,0.0,WeatherDisplay:10.37,2013-01-27 16:35:00,
2013-01-27 16:40:00,39.3,34.9,29.00,WSW,257,25.3,25.3,84,0.01,,,0.35,0.0,WeatherDisplay:10.37,2013-01-27 16:40:00,
2013-01-27 16:45:00,39.3,34.9,29.01,WSW,255,15.0,15.0,84,0.01,OVC,,0.35,0.0,WeatherDisplay:10.37,2013-01-27 16:45:00,
2013-01-27 16:50:00,39.3,34.9,29.01,WSW,257,15.0,15.0,84,0.01,OVC,,0.35,0.0,WeatherDisplay:10.37,2013-01-27 16:50:00,
2013-01-27 16:55:00,39.2,34.8,29.02,WSW,247,18.4,18.4,84,0.01,OVC,,0.35,0.0,WeatherDisplay:10.37,2013-01-27 16:55:00,
2013-01-27 17:00:00,39.1,35.0,29.02,SW,221,20.7,20.7,85,0.01,OVC,,0.35,0.0,WeatherDisplay:10.37,2013-01-27 17:00:00,
2013-01-27 17:05:00,39.0,34.9,29.03,WSW,248,18.4,18.4,85,0.01,CLR,,0.35,0.0,WeatherDisplay:10.37,2013-01-27 17:05:00,
2013-01-27 17:10:00,39.0,34.9,29.02,SW,230,15.0,15.0,85,0.01,CLR,,0.35,0.0,WeatherDisplay:10.37,2013-01-27 17:10:00,
2013-01-27 17:15:00,38.9,34.8,29.02,SW,233,11.5,11.5,85,0.01,CLR,,0.35,0.0,WeatherDisplay:10.37,2013-01-27 17:15:00,
2013-01-27 17:20:00,38.9,34.5,29.02,SW,236,16.1,16.1,84,0.01,CLR,,0.35,0.0,WeatherDisplay:10.37,2013-01-27 17:20:00,
2013-01-27 17:25:00,38.8,34.4,29.03,WSW,258,17.3,17.3,84,0.01,CLR,,0.35,0.0,WeatherDisplay:10.37,2013-01-27 17:25:00,
2013-01-27 17:30:00,38.7,34.3,29.04,WSW,248,19.6,19.6,84,0.00,CLR,,0.35,0.0,WeatherDisplay:10.37,2013-01-27 17:30:00,
2013-01-27 17:35:00,38.5,34.1,29.04,WSW,252,15.0,15.0,84,0.00,CLR,,0.35,0.0,WeatherDisplay:10.37,2013-01-27 17:35:00,
2013-01-27 17:40:00,38.5,34.1,29.04,SW,214,13.8,13.8,84,0.00,CLR,,0.35,0.0,WeatherDisplay:10.37,2013-01-27 17:40:00,
2013-01-27 17:45:00,38.4,34.0,29.04,WSW,238,16.1,16.1,84,0.00,CLR,,0.35,0.0,WeatherDisplay:10.37,2013-01-27 17:45:00,
2013-01-27 17:50:00,38.5,34.4,29.04,SW,229,17.3,17.3,85,0.00,CLR,,0.35,0.0,WeatherDisplay:10.37,2013-01-27 17:50:00,
2013-01-27 17:55:00,38.5,34.4,29.05,WSW,240,13.8,13.8,85,0.00,CLR,,0.35,0.0,WeatherDisplay:10.37,2013-01-27 17:55:00,
2013-01-27 18:00:00,38.5,34.4,29.05,WSW,247,21.9,21.9,85,0.00,CLR,,0.35,0.0,WeatherDisplay:10.37,2013-01-27 18:00:00,
2013-01-27 18:05:00,38.7,34.6,29.05,WSW,241,19.6,19.6,85,0.00,CLR,,0.35,0.0,WeatherDisplay:10.37,2013-01-27 18:05:00,
2013-01-27 18:10:00,38.7,34.6,29.05,WSW,241,12.7,12.7,85,0.00,CLR,,0.35,0.0,WeatherDisplay:10.37,2013-01-27 18:10:00,
2013-01-27 18:15:00,38.7,34.6,29.05,WSW,244,16.1,16.1,85,0.00,CLR,,0.35,0.0,WeatherDisplay:10.37,2013-01-27 18:15:00,
2013-01-27 18:20:00,38.8,34.7,29.06,West,269,15.0,15.0,85,0.00,CLR,,0.35,0.0,WeatherDisplay:10.37,2013-01-27 18:20:00,
2013-01-27 18:25:00,38.9,34.8,29.06,WSW,253,21.9,21.9,85,0.00,CLR,,0.35,0.0,WeatherDisplay:10.37,2013-01-27 18:25:00,
2013-01-27 18:30:00,38.9,34.8,29.07,WSW,258,19.6,19.6,85,0.00,CLR,,0.35,0.0,WeatherDisplay:10.37,2013-01-27 18:30:00,
2013-01-27 18:35:00,38.9,34.8,29.07,WSW,245,22.0,22.0,85,0.00,CLR,,0.35,0.0,WeatherDisplay:10.37,2013-01-27 18:35:00,
2013-01-27 18:40:00,38.9,34.5,29.08,West,264,17.3,17.3,84,0.00,CLR,,0.35,0.0,WeatherDisplay:10.37,2013-01-27 18:40:00,
2013-01-27 18:45:00,38.9,34.5,29.08,WSW,240,26.5,26.5,84,0.00,CLR,,0.35,0.0,WeatherDisplay:10.37,2013-01-27 18:45:00,
2013-01-27 18:50:00,39.0,34.6,29.08,WSW,243,17.3,17.3,84,0.00,CLR,,0.35,0.0,WeatherDisplay:10.37,2013-01-27 18:50:00,
2013-01-27 18:55:00,39.0,34.6,29.07,SSW,200,16.1,16.1,84,0.00,CLR,,0.35,0.0,WeatherDisplay:10.37,2013-01-27 18:55:00,
2013-01-27 19:00:00,38.9,34.2,29.08,SW,229,19.6,19.6,83,0.00,CLR,,0.35,0.0,WeatherDisplay:10.37,2013-01-27 19:00:00,
2013-01-27 19:05:00,38.9,34.2,29.09,SW,220,13.8,13.8,83,0.00,CLR,,0.35,0.0,WeatherDisplay:10.37,2013-01-27 19:05:00,
2013-01-27 19:10:00,38.8,34.1,29.08,SW,217,15.0,15.0,83,0.00,CLR,,0.35,0.0,WeatherDisplay:10.37,2013-01-27 19:10:00,
2013-01-27 19:15:00,38.7,34.0,29.08,SW,235,18.4,18.4,83,0.00,CLR,,0.35,0.0,WeatherDisplay:10.37,2013-01-27 19:15:00,
2013-01-27 19:20:00,38.6,34.2,29.09,WSW,248,19.6,19.6,84,0.00,CLR,,0.35,0.0,WeatherDisplay:10.37,2013-01-27 19:20:00,
2013-01-27 19:25:00,38.7,34.3,29.09,SSW,199,19.6,19.6,84,0.00,CLR,,0.35,0.0,WeatherDisplay:10.37,2013-01-27 19:25:00,
2013-01-27 19:30:00,38.8,34.4,29.10,WSW,244,20.7,20.7,84,0.00,CLR,,0.35,0.0,WeatherDisplay:10.37,2013-01-27 19:30:00,
2013-01-27 19:35:00,38.9,34.5,29.09,WSW,245,27.6,27.6,84,0.00,CLR,,0.35,0.0,WeatherDisplay:10.37,2013-01-27 19:35:00,
2013-01-27 19:40:00,38.9,34.5,29.10,SW,230,15.0,15.0,84,0.00,CLR,,0.35,0.0,WeatherDisplay:10.37,2013-01-27 19:40:00,
2013-01-27 19:45:00,38.9,34.2,29.11,SW,236,19.6,19.6,83,0.00,CLR,,0.35,0.0,WeatherDisplay:10.37,2013-01-27 19:45:00,
2013-01-27 19:50:00,38.9,34.5,29.11,SSW,202,14.0,14.0,84,0.00,CLR,,0.35,0.0,WeatherDisplay:10.37,2013-01-27 19:50:00,
2013-01-27 19:55:00,39.0,34.6,29.11,WSW,248,11.0,11.0,84,0.00,CLR,,0.35,0.0,WeatherDisplay:10.37,2013-01-27 19:55:00,
2013-01-27 20:00:00,38.9,34.8,29.11,WSW,244,15.0,15.0,85,0.01,RA,,0.36,0.0,WeatherDisplay:10.37,2013-01-27 20:00:00,
2013-01-27 20:05:00,38.8,35.0,29.12,WSW,241,10.4,10.4,86,0.02,RA,,0.37,0.0,WeatherDisplay:10.37,2013-01-27 20:05:00,
2013-01-27 20:10:00,38.6,34.8,29.12,SW,236,13.8,13.8,86,0.02,RA,,0.38,0.0,WeatherDisplay:10.37,2013-01-27 20:10:00,
2013-01-27 20:15:00,38.4,34.9,29.12,SW,234,14.0,14.0,87,0.03,RA,,0.39,0.0,WeatherDisplay:10.37,2013-01-27 20:15:00,
2013-01-27 20:20:00,38.2,34.7,29.12,SW,223,11.5,11.5,87,0.03,RA,,0.39,0.0,WeatherDisplay:10.37,2013-01-27 20:20:00,
2013-01-27 20:25:00,38.1,34.9,29.13,WSW,237,8.1,8.1,88,0.03,CLR,,0.39,0.0,WeatherDisplay:10.37,2013-01-27 20:25:00,
2013-01-27 20:30:00,38.0,34.8,29.13,West,273,17.3,17.3,88,0.04,RA,,0.39,0.0,WeatherDisplay:10.37,2013-01-27 20:30:00,
2013-01-27 20:35:00,38.0,34.8,29.13,WSW,246,12.7,12.7,88,0.04,RA,,0.39,0.0,WeatherDisplay:10.37,2013-01-27 20:35:00,
2013-01-27 20:40:00,38.0,34.8,29.13,West,259,6.9,6.9,88,0.04,CLR,,0.39,0.0,WeatherDisplay:10.37,2013-01-27 20:40:00,
2013-01-27 20:45:00,38.0,34.5,29.13,SW,215,9.2,9.2,87,0.04,CLR,,0.39,0.0,WeatherDisplay:10.37,2013-01-27 20:45:00,
2013-01-27 20:50:00,38.0,34.5,29.13,SW,231,11.5,11.5,87,0.04,CLR,,0.39,0.0,WeatherDisplay:10.37,2013-01-27 20:50:00,
2013-01-27 20:55:00,37.9,34.7,29.13,SW,234,3.5,4.1,88,0.04,CLR,,0.39,0.0,WeatherDisplay:10.37,2013-01-27 20:55:00,
2013-01-27 21:00:00,37.9,34.4,29.13,WSW,237,12.7,12.7,87,0.03,CLR,,0.39,0.0,WeatherDisplay:10.37,2013-01-27 21:00:00,
2013-01-27 21:05:00,37.9,34.4,29.14,South,179,10.4,10.4,87,0.02,CLR,,0.39,0.0,WeatherDisplay:10.37,2013-01-27 21:05:00,
2013-01-27 21:10:00,37.8,34.3,29.14,SW,228,15.0,15.0,87,0.02,CLR,,0.39,0.0,WeatherDisplay:10.37,2013-01-27 21:10:00,
2013-01-27 21:15:00,37.8,34.3,29.13,SW,233,8.1,8.1,87,0.01,CLR,,0.39,0.0,WeatherDisplay:10.37,2013-01-27 21:15:00,
2013-01-27 21:20:00,37.8,34.3,29.14,SSW,207,12.7,12.7,87,0.01,CLR,,0.39,0.0,WeatherDisplay:10.37,2013-01-27 21:20:00,
2013-01-27 21:25:00,37.7,34.2,29.14,SW,228,10.4,10.4,87,0.01,CLR,,0.40,0.0,WeatherDisplay:10.37,2013-01-27 21:25:00,
2013-01-27 21:30:00,37.7,34.2,29.13,SW,234,9.2,9.2,87,0.01,RA,,0.40,0.0,WeatherDisplay:10.37,2013-01-27 21:30:00,
2013-01-27 21:35:00,37.6,34.1,29.13,West,265,16.1,16.1,87,0.01,RA,,0.40,0.0,WeatherDisplay:10.37,2013-01-27 21:35:00,
2013-01-27 21:40:00,37.6,34.1,29.14,SW,232,9.2,9.2,87,0.01,CLR,,0.40,0.0,WeatherDisplay:10.37,2013-01-27 21:40:00,
2013-01-27 21:45:00,37.6,34.1,29.14,WNW,296,12.7,12.7,87,0.01,CLR,,0.40,0.0,WeatherDisplay:10.37,2013-01-27 21:45:00,
2013-01-27 21:50:00,37.5,34.0,29.15,SW,214,10.4,10.4,87,0.01,CLR,,0.40,0.0,WeatherDisplay:10.37,2013-01-27 21:50:00,
2013-01-27 21:55:00,37.5,34.0,29.15,WSW,237,9.2,9.2,87,0.01,CLR,,0.40,0.0,WeatherDisplay:10.37,2013-01-27 21:55:00,
2013-01-27 22:01:00,37.6,34.1,29.15,WSW,237,15.0,15.0,87,0.01,CLR,,0.40,0.0,WeatherDisplay:10.37,2013-01-27 22:01:00,
2013-01-27 22:05:00,37.6,34.1,29.16,SSW,208,12.7,12.7,87,0.01,CLR,,0.40,0.0,WeatherDisplay:10.37,2013-01-27 22:05:00,
2013-01-27 22:11:00,37.7,34.2,29.16,WSW,251,15.0,15.0,87,0.01,CLR,,0.40,0.0,WeatherDisplay:10.37,2013-01-27 22:11:00,
2013-01-27 22:16:00,37.8,34.6,29.16,SW,226,10.4,10.4,88,0.02,RA,,0.41,0.0,WeatherDisplay:10.37,2013-01-27 22:16:00,
2013-01-27 22:21:00,37.9,34.7,29.16,SW,232,9.2,9.2,88,0.02,RA,,0.41,0.0,WeatherDisplay:10.37,2013-01-27 22:21:00,
2013-01-27 22:26:00,37.9,34.7,29.16,SW,223,9.2,9.2,88,0.02,,,0.41,0.0,WeatherDisplay:10.37,2013-01-27 22:26:00,
2013-01-27 22:31:00,37.8,34.6,29.16,SW,229,6.0,6.8,88,0.01,CLR,,0.41,0.0,WeatherDisplay:10.37,2013-01-27 22:31:00,
2013-01-27 22:36:00,37.7,34.2,29.16,WSW,238,13.0,13.0,87,0.01,CLR,,0.41,0.0,WeatherDisplay:10.37,2013-01-27 22:36:00,
2013-01-27 22:41:00,37.8,34.3,29.17,SSW,205,12.7,12.7,87,0.01,CLR,,0.41,0.0,WeatherDisplay:10.37,2013-01-27 22:41:00,
2013-01-27 22:46:00,37.7,34.2,29.17,WSW,239,6.9,6.9,87,0.01,CLR,,0.41,0.0,WeatherDisplay:10.37,2013-01-27 22:46:00,
2013-01-27 22:51:00,37.7,34.5,29.17,SW,222,13.8,13.8,88,0.02,RA,,0.42,0.0,WeatherDisplay:10.37,2013-01-27 22:51:00,
2013-01-27 22:56:00,37.7,34.2,29.17,West,260,13.8,13.8,87,0.02,RA,,0.42,0.0,WeatherDisplay:10.37,2013-01-27 22:56:00,
2013-01-27 23:01:00,37.8,34.0,29.17,WSW,256,18.4,18.4,86,0.02,CLR,,0.42,0.0,WeatherDisplay:10.37,2013-01-27 23:01:00,
2013-01-27 23:06:00,37.8,34.0,29.17,SW,216,19.6,19.6,86,0.02,CLR,,0.42,0.0,WeatherDisplay:10.37,2013-01-27 23:06:00,
2013-01-27 23:11:00,37.7,33.9,29.17,SW,232,15.0,15.0,86,0.02,CLR,,0.42,0.0,WeatherDisplay:10.37,2013-01-27 23:11:00,
2013-01-27 23:16:00,37.6,33.8,29.17,SW,234,11.5,11.5,86,0.01,CLR,,0.42,0.0,WeatherDisplay:10.37,2013-01-27 23:16:00,
2013-01-27 23:21:00,37.5,33.7,29.18,SSW,204,19.6,19.6,86,0.01,CLR,,0.42,0.0,WeatherDisplay:10.37,2013-01-27 23:21:00,
2013-01-27 23:26:00,37.4,33.6,29.18,SW,217,17.3,17.3,86,0.01,CLR,,0.42,0.0,WeatherDisplay:10.37,2013-01-27 23:26:00,
2013-01-27 23:31:00,37.4,33.6,29.18,WSW,255,11.5,11.5,86,0.01,CLR,,0.42,0.0,WeatherDisplay:10.37,2013-01-27 23:31:00,
2013-01-27 23:36:00,37.4,33.6,29.18,WSW,248,14.0,14.0,86,0.01,CLR,,0.42,0.0,WeatherDisplay:10.37,2013-01-27 23:36:00,
2013-01-27 23:41:00,37.4,33.6,29.18,SW,227,17.3,17.3,86,0.01,CLR,,0.42,0.0,WeatherDisplay:10.37,2013-01-27 23:41:00,
2013-01-27 23:46:00,37.5,33.4,29.19,West,264,24.0,24.0,85,0.01,CLR,,0.42,0.0,WeatherDisplay:10.37,2013-01-27 23:46:00,
2013-01-27 23:51:00,37.6,33.5,29.19,SW,217,21.9,21.9,85,0.00,CLR,,0.42,0.0,WeatherDisplay:10.37,2013-01-27 23:51:00,
2013-01-27 23:56:00,37.6,33.5,29.18,WSW,252,21.9,21.9,85,0.00,CLR,,0.42,0.0,WeatherDisplay:10.37,2013-01-27 23:56:00,